Time;durP1;ratioP1;P1;durP2;ratioP2;P2;SDS_P1;SDS_P2;PMS_P1;PMS_P2;Temp;Humidity;BMP_temperature;BMP_pressure;BME280_temperature;BME280_humidity;BME280_pressure;Samples;Min_cycle;Max_cycle;Signal;HPM_P1;HPM_P2
2022/02/12 00:00:41;;;;;;;;;;;;;;;-2.76;72.53;100897.72;5092142;28;19916;-63
2022/02/12 00:03:07;;;;;;;;;;;;;;;-2.75;72.98;100895.03;5073838;28;19961;-63
2022/02/12 00:05:32;;;;;;;;;;;;;;;-2.75;72.54;100904.59;5091892;28;19916;-63
2022/02/12 00:07:58;;;;;;;;;;;;;;;-2.82;72.46;100904.91;5092207;28;19915;-62
2022/02/12 00:10:25;;;;;;;;;;;;;;;-2.93;72.36;100908.94;5073518;28;19942;-63
2022/02/12 00:12:51;;;;;;;;;;;;;;;-3.04;72.46;100914.66;5091926;28;20305;-62
2022/02/12 00:15:16;;;;;;;;;;;;;;;-3.20;72.25;100885.88;5073584;28;20015;-62
2022/02/12 00:17:45;;;;;;;;;;;;;;;-2.98;72.43;100919.56;5092348;28;19920;-63
2022/02/12 00:20:11;;;;;;;;;;;;;;;-3.05;72.64;100927.75;5091690;28;19923;-62
2022/02/12 00:22:37;;;;;;;;;;;;;;;-3.05;71.97;100928.59;5056719;28;19916;-61
2022/02/12 00:25:03;;;;;;;;;;;;;;;-2.98;71.96;100922.19;5091758;28;19923;-62
2022/02/12 00:27:29;;;;;;;;;;;;;;;-2.99;72.38;100930.91;5093003;28;20401;-62
2022/02/12 00:29:54;;;;;;;;;;;;;;;-3.07;73.34;100935.66;5092809;28;19916;-61
2022/02/12 00:32:20;;;;;;;;;;;;;;;-3.17;73.25;100935.25;5093128;28;20014;-62
2022/02/12 00:34:46;;;;;;;;;;;;;;;-3.21;73.92;100944.09;5056715;28;20275;-63
2022/02/12 00:37:12;;;;;;;;;;;;;;;-3.26;74.04;100945.22;5056521;28;19916;-63
2022/02/12 00:39:41;;;;;;;;;;;;;;;-3.21;73.59;100948.47;5095120;28;19923;-63
2022/02/12 00:42:09;;;;;;;;;;;;;;;-3.16;73.88;100946.50;5077448;28;19920;-64
2022/02/12 00:44:35;;;;;;;;;;;;;;;-3.14;74.06;100949.88;5076842;28;19923;-62
2022/02/12 00:47:01;;;;;;;;;;;;;;;-3.20;74.11;100960.56;5095445;28;19934;-65
2022/02/12 00:49:26;;;;;;;;;;;;;;;-3.26;74.39;100963.47;5062472;28;19916;-62
2022/02/12 00:51:52;;;;;;;;;;;;;;;-3.36;74.62;100959.59;5095707;28;19927;-63
2022/02/12 00:54:18;;;;;;;;;;;;;;;-3.39;74.79;100960.56;5095541;28;19938;-62
2022/02/12 00:56:43;;;;;;;;;;;;;;;-3.41;74.45;100970.22;5094866;28;19916;-62
2022/02/12 00:59:09;;;;;;;;;;;;;;;-3.47;74.62;100984.34;5094574;28;19916;-63
2022/02/12 01:01:34;;;;;;;;;;;;;;;-3.55;75.06;100970.81;5094479;28;19916;-63
2022/02/12 01:04:03;;;;;;;;;;;;;;;-3.60;74.73;100969.34;5094334;28;19915;-63
2022/02/12 01:06:29;;;;;;;;;;;;;;;-3.62;75.16;100974.59;5094608;28;19916;-63
2022/02/12 01:08:54;;;;;;;;;;;;;;;-3.66;74.69;100978.25;5094735;28;19935;-63
2022/02/12 01:11:20;;;;;;;;;;;;;;;-3.72;75.42;100983.75;5076191;28;19916;-62
2022/02/12 01:13:46;;;;;;;;;;;;;;;-3.68;75.50;100979.25;5077098;28;19923;-61
2022/02/12 01:16:12;;;;;;;;;;;;;;;-3.62;74.95;100982.41;5075966;28;19927;-62
2022/02/12 01:18:38;;;;;;;;;;;;;;;-3.60;74.95;100985.78;5092923;28;19920;-62
2022/02/12 01:21:03;;;;;;;;;;;;;;;-3.63;74.61;100988.53;5094194;28;19920;-63
2022/02/12 01:23:28;;;;;;;;;;;;;;;-3.60;75.19;100985.78;5076282;28;19915;-62
2022/02/12 01:25:54;;;;;;;;;;;;;;;-3.61;74.32;100980.66;5094057;28;19924;-63
2022/02/12 01:28:20;;;;;;;;;;;;;;;-3.68;74.61;100987.91;5094311;28;20399;-62
2022/02/12 01:30:45;;;;;;;;;;;;;;;-3.77;74.54;100990.88;5059277;28;19916;-63
2022/02/12 01:33:14;;;;;;;;;;;;;;;-3.79;75.60;100996.16;5094075;28;20379;-63
2022/02/12 01:35:40;;;;;;;;;;;;;;;-3.86;74.63;100991.28;5093518;28;19923;-62
2022/02/12 01:38:06;;;;;;;;;;;;;;;-4.07;76.08;100998.22;5094365;28;19995;-62
2022/02/12 01:40:33;;;;;;;;;;;;;;;-4.20;76.44;100997.91;5074265;28;20441;-64
2022/02/12 01:43:02;;;;;;;;;;;;;;;-4.26;76.44;101007.72;5075737;28;19982;-64
2022/02/12 01:45:31;;;;;;;;;;;;;;;-4.33;76.94;101012.31;5094024;28;20396;-63
2022/02/12 01:47:56;;;;;;;;;;;;;;;-4.35;76.76;101024.50;5093490;28;19931;-63
2022/02/12 01:50:23;;;;;;;;;;;;;;;-4.39;76.75;101017.75;5092650;28;19915;-64
2022/02/12 01:52:51;;;;;;;;;;;;;;;-4.43;76.97;101021.38;5093815;28;19916;-62
2022/02/12 01:55:17;;;;;;;;;;;;;;;-4.37;76.55;101034.13;5075756;28;19923;-63
2022/02/12 01:57:44;;;;;;;;;;;;;;;-4.39;76.67;101022.94;5094134;28;19917;-62
2022/02/12 02:00:11;;;;;;;;;;;;;;;-4.41;77.02;101035.16;5059300;28;20023;-63
2022/02/12 02:02:37;;;;;;;;;;;;;;;-4.42;76.72;101046.47;5093540;28;19916;-64
2022/02/12 02:05:05;;;;;;;;;;;;;;;-4.48;76.63;101044.13;5075870;28;19916;-65
2022/02/12 02:07:31;;;;;;;;;;;;;;;-4.54;77.01;101034.81;5075753;28;20028;-62
2022/02/12 02:09:56;;;;;;;;;;;;;;;-4.52;76.83;101045.16;5093593;28;20398;-63
2022/02/12 02:12:22;;;;;;;;;;;;;;;-4.45;77.08;101054.38;5075282;28;19998;-63
2022/02/12 02:14:47;;;;;;;;;;;;;;;-4.48;76.77;101047.56;5092127;28;20355;-63
2022/02/12 02:17:13;;;;;;;;;;;;;;;-4.47;76.89;101056.22;5092120;28;19915;-64
2022/02/12 02:19:38;;;;;;;;;;;;;;;-4.43;77.10;101049.97;5092090;28;19969;-61
2022/02/12 02:22:04;;;;;;;;;;;;;;;-4.47;76.31;101061.41;5092440;28;20113;-62
2022/02/12 02:24:30;;;;;;;;;;;;;;;-4.46;76.92;101056.16;5093632;28;19923;-62
2022/02/12 02:27:09;;;;;;;;;;;;;;;-4.49;76.70;101058.03;5093603;28;20367;-62
2022/02/12 02:29:37;;;;;;;;;;;;;;;-4.49;77.21;101058.03;5093220;28;19920;-64
2022/02/12 02:32:02;;;;;;;;;;;;;;;-4.47;77.05;101069.19;5075376;28;19969;-62
2022/02/12 02:34:28;;;;;;;;;;;;;;;-4.53;76.70;101069.44;5093087;28;20286;-63
2022/02/12 02:36:57;;;;;;;;;;;;;;;-4.56;77.55;101066.97;5093443;28;20443;-62
2022/02/12 02:39:26;;;;;;;;;;;;;;;-4.55;77.06;101076.47;5057903;28;19920;-62
2022/02/12 02:41:52;;;;;;;;;;;;;;;-4.62;77.54;101077.59;5092036;28;19964;-61
2022/02/12 02:44:17;;;;;;;;;;;;;;;-4.67;77.27;101076.00;5092937;28;20403;-61
2022/02/12 02:46:43;;;;;;;;;;;;;;;-4.64;77.04;101084.59;5093081;28;19916;-63
2022/02/12 02:49:09;;;;;;;;;;;;;;;-4.67;77.61;101081.19;5074955;28;20295;-63
2022/02/12 02:57:02;;;;;;;;;;;;;;;-4.76;78.20;101097.16;5074721;28;19916;-62
2022/02/12 02:59:27;;;;;;;;;;;;;;;-4.76;78.20;101091.09;5092872;28;20409;-63
2022/02/12 03:01:53;;;;;;;;;;;;;;;-4.84;77.75;101087.97;5092593;28;20374;-63
2022/02/12 03:04:22;;;;;;;;;;;;;;;-4.90;78.22;101090.78;5074093;28;19922;-61
2022/02/12 03:06:48;;;;;;;;;;;;;;;-4.91;77.79;101086.50;5092545;28;19967;-63
2022/02/12 03:09:13;;;;;;;;;;;;;;;-4.93;78.14;101083.06;5057534;28;19993;-64
2022/02/12 03:11:39;;;;;;;;;;;;;;;-4.95;78.70;101101.31;5092160;28;20393;-63
2022/02/12 03:14:04;;;;;;;;;;;;;;;-4.94;77.80;101095.22;5092742;28;19927;-63
2022/02/12 03:16:30;;;;;;;;;;;;;;;-4.93;78.40;101099.50;5092100;28;19916;-64
2022/02/12 03:18:56;;;;;;;;;;;;;;;-4.97;78.74;101095.34;5092587;28;19915;-66
2022/02/12 03:21:22;;;;;;;;;;;;;;;-4.94;78.00;101102.16;5074041;28;20441;-64
2022/02/12 03:23:47;;;;;;;;;;;;;;;-4.99;78.76;101091.94;5092084;28;19922;-64
2022/02/12 03:26:13;;;;;;;;;;;;;;;-5.04;79.36;101101.66;5093069;28;19916;-63
2022/02/12 03:28:38;;;;;;;;;;;;;;;-5.00;78.69;101105.84;5092952;28;19922;-62
2022/02/12 03:31:04;;;;;;;;;;;;;;;-4.98;79.29;101106.63;5092732;28;20283;-65
2022/02/12 03:33:29;;;;;;;;;;;;;;;-4.92;78.45;101110.75;5092585;28;20002;-62
2022/02/12 03:35:55;;;;;;;;;;;;;;;-4.91;78.32;101110.72;5074811;28;19916;-63
2022/02/12 03:38:20;;;;;;;;;;;;;;;-4.91;78.93;101108.13;5093521;28;19915;-62
2022/02/12 03:40:48;;;;;;;;;;;;;;;-4.85;78.69;101109.66;5092369;28;19927;-64
2022/02/12 03:43:13;;;;;;;;;;;;;;;-4.84;78.21;101109.59;5092507;28;19920;-62
2022/02/12 03:45:39;;;;;;;;;;;;;;;-4.78;78.29;101093.75;5092535;28;19923;-63
2022/02/12 03:48:05;;;;;;;;;;;;;;;-4.73;78.44;101096.19;5074355;28;19916;-64
2022/02/12 03:50:31;;;;;;;;;;;;;;;-4.71;78.27;101105.63;5092979;28;20421;-65
2022/02/12 03:53:00;;;;;;;;;;;;;;;-4.75;77.67;101109.22;5092224;28;19934;-64
2022/02/12 03:55:26;;;;;;;;;;;;;;;-4.78;78.33;101101.56;5092429;28;19916;-64
2022/02/12 03:57:52;;;;;;;;;;;;;;;-4.86;78.17;101103.59;5092389;28;19973;-65
2022/02/12 04:00:18;;;;;;;;;;;;;;;-4.91;78.55;101096.88;5091733;28;20018;-64
2022/02/12 04:02:44;;;;;;;;;;;;;;;-5.00;78.98;101108.44;5092116;28;19923;-63
2022/02/12 04:05:10;;;;;;;;;;;;;;;-5.00;78.81;101108.44;5092225;28;19916;-63
2022/02/12 04:07:38;;;;;;;;;;;;;;;-5.00;78.65;101108.44;5092069;28;19916;-64
2022/02/12 04:10:07;;;;;;;;;;;;;;;-5.02;78.99;101110.25;5073969;28;19922;-63
2022/02/12 04:12:33;;;;;;;;;;;;;;;-5.02;78.92;101118.03;5092499;28;19916;-65
2022/02/12 04:14:58;;;;;;;;;;;;;;;-5.05;78.17;101121.59;5096225;28;19922;-64
2022/02/12 04:17:24;;;;;;;;;;;;;;;-5.11;78.73;101132.22;5096379;28;19924;-64
2022/02/12 04:19:50;;;;;;;;;;;;;;;-5.14;79.24;101131.47;5096091;28;19960;-64
2022/02/12 04:22:15;;;;;;;;;;;;;;;-5.22;78.93;101117.88;5096094;28;19998;-64
2022/02/12 04:24:41;;;;;;;;;;;;;;;-5.30;79.63;101129.41;5096218;28;20298;-63
2022/02/12 04:27:06;;;;;;;;;;;;;;;-5.35;79.60;101131.31;5096167;28;19916;-64
2022/02/12 04:29:31;;;;;;;;;;;;;;;-5.34;80.06;101125.22;5095852;28;19916;-63
2022/02/12 04:31:57;;;;;;;;;;;;;;;-5.36;79.62;101132.22;5095827;28;19916;-64
2022/02/12 04:34:22;;;;;;;;;;;;;;;-5.42;79.72;101122.03;5096100;28;19922;-63
2022/02/12 04:36:50;;;;;;;;;;;;;;;-5.40;79.64;101129.78;5096751;28;19970;-64
2022/02/12 04:39:18;;;;;;;;;;;;;;;-5.38;80.26;101134.00;5096440;28;19926;-62
2022/02/12 04:41:45;;;;;;;;;;;;;;;-5.31;79.93;101122.50;5096713;28;19920;-64
2022/02/12 04:44:11;;;;;;;;;;;;;;;-5.26;80.29;101121.50;5095585;28;20260;-64
2022/02/12 04:46:38;;;;;;;;;;;;;;;-5.24;80.02;101115.34;5077489;28;20383;-64
2022/02/12 04:49:05;;;;;;;;;;;;;;;-5.20;80.85;101129.94;5077033;28;19916;-64
2022/02/12 04:51:31;;;;;;;;;;;;;;;-5.16;80.10;101122.88;5076271;28;19920;-64
2022/02/12 04:53:58;;;;;;;;;;;;;;;-5.18;80.30;101125.53;5059805;28;20030;-65
2022/02/12 04:56:25;;;;;;;;;;;;;;;-5.16;80.53;101126.34;5078404;28;19920;-65
2022/02/12 04:58:51;;;;;;;;;;;;;;;-5.15;80.30;101129.78;5061456;28;20026;-64
2022/02/12 05:01:24;;;;;;;;;;;;;;;-5.21;80.54;101125.63;5077881;28;19955;-64
2022/02/12 05:03:53;;;;;;;;;;;;;;;-5.25;80.17;101125.78;5076647;28;19974;-62
2022/02/12 05:06:19;;;;;;;;;;;;;;;-5.18;80.05;101135.09;5059702;28;19955;-64
2022/02/12 05:08:45;;;;;;;;;;;;;;;-5.13;80.47;101131.41;5075420;28;20053;-65
2022/02/12 05:11:11;;;;;;;;;;;;;;;-5.11;80.17;101126.16;5059413;28;20307;-65
2022/02/12 05:13:37;;;;;;;;;;;;;;;-5.10;80.16;101123.50;5075999;28;19916;-65
2022/02/12 05:16:03;;;;;;;;;;;;;;;-5.15;79.97;101128.03;5076005;28;19976;-64
2022/02/12 05:18:28;;;;;;;;;;;;;;;-5.21;79.99;101119.59;5093063;28;19924;-65
2022/02/12 05:20:54;;;;;;;;;;;;;;;-5.29;80.34;101127.66;5095103;28;20282;-65
2022/02/12 05:23:19;;;;;;;;;;;;;;;-5.35;79.93;101123.53;5094510;28;19962;-64
2022/02/12 05:25:45;;;;;;;;;;;;;;;-5.38;80.18;101139.19;5094843;28;19961;-65
2022/02/12 05:28:10;;;;;;;;;;;;;;;-5.42;80.40;101132.44;5076111;28;20358;-65
2022/02/12 05:30:36;;;;;;;;;;;;;;;-5.46;80.55;101135.19;5094591;28;20033;-69
2022/02/12 05:33:01;;;;;;;;;;;;;;;-5.46;80.53;101124.81;5075947;28;19916;-66
2022/02/12 05:35:27;;;;;;;;;;;;;;;-5.50;80.84;101133.56;5094242;28;19916;-65
2022/02/12 05:37:52;;;;;;;;;;;;;;;-5.52;80.44;101140.56;5094633;28;19916;-67
2022/02/12 05:40:21;;;;;;;;;;;;;;;-5.55;80.99;101140.66;5094365;28;19920;-65
2022/02/12 05:42:47;;;;;;;;;;;;;;;-5.61;81.26;101141.72;5093018;28;19926;-64
2022/02/12 05:45:13;;;;;;;;;;;;;;;-5.67;81.26;101141.94;5094647;28;19916;-67
2022/02/12 05:47:40;;;;;;;;;;;;;;;-5.72;80.83;101138.63;5076378;28;19916;-64
2022/02/12 05:50:06;;;;;;;;;;;;;;;-5.73;81.79;101142.13;5059821;28;19915;-64
2022/02/12 05:52:32;;;;;;;;;;;;;;;-5.75;80.80;101141.34;5094523;28;19978;-65
2022/02/12 05:54:57;;;;;;;;;;;;;;;-5.72;80.76;101133.44;5094340;28;19967;-64
2022/02/12 05:57:23;;;;;;;;;;;;;;;-5.65;81.01;101145.31;5093973;28;19916;-66
2022/02/12 05:59:48;;;;;;;;;;;;;;;-5.59;81.36;101134.72;5096002;28;19916;-64
2022/02/12 06:02:13;;;;;;;;;;;;;;;-5.55;80.71;101131.13;5096322;28;20375;-65
2022/02/12 06:04:39;;;;;;;;;;;;;;;-5.52;80.59;101138.81;5094431;28;20022;-66
2022/02/12 06:07:04;;;;;;;;;;;;;;;-5.47;80.62;101138.69;5093163;28;20014;-65
2022/02/12 06:09:29;;;;;;;;;;;;;;;-5.49;80.75;101136.13;5057677;28;19916;-66
2022/02/12 06:11:55;;;;;;;;;;;;;;;-5.46;80.34;101125.66;5073726;28;20014;-65
2022/02/12 06:14:20;;;;;;;;;;;;;;;-5.41;80.80;101131.53;5055361;28;19963;-63
2022/02/12 06:16:45;;;;;;;;;;;;;;;-5.41;80.73;101128.94;5073592;28;20470;-65
2022/02/12 06:19:11;;;;;;;;;;;;;;;-5.41;81.33;101138.47;5056024;28;19960;-69
2022/02/12 06:21:36;;;;;;;;;;;;;;;-5.38;80.99;101134.00;5073768;28;20403;-63
2022/02/12 06:24:05;;;;;;;;;;;;;;;-5.34;81.29;101135.59;5073735;28;19924;-63
2022/02/12 06:26:31;;;;;;;;;;;;;;;-5.31;81.23;101139.84;5072486;28;20007;-62
2022/02/12 06:28:56;;;;;;;;;;;;;;;-5.26;80.94;101139.66;5073287;28;20012;-64
2022/02/12 06:31:22;;;;;;;;;;;;;;;-5.24;80.74;101138.72;5039014;28;20015;-64
2022/02/12 06:33:47;;;;;;;;;;;;;;;-5.24;81.25;101130.06;5073553;28;20419;-64
2022/02/12 06:36:13;;;;;;;;;;;;;;;-5.20;80.67;101135.13;5082769;28;20409;-61
2022/02/12 06:38:38;;;;;;;;;;;;;;;-5.10;81.22;101131.31;5093500;28;20298;-62
2022/02/12 06:41:04;;;;;;;;;;;;;;;-4.88;81.42;101123.59;5093400;28;20382;-70
2022/02/12 06:43:29;;;;;;;;;;;;;;;-4.65;80.38;101125.31;5091803;28;19920;-64
2022/02/12 06:45:55;;;;;;;;;;;;;;;-4.51;80.13;101133.47;5092446;28;19963;-67
2022/02/12 06:48:20;;;;;;;;;;;;;;;-4.38;79.71;101131.22;5092595;28;19951;-65
2022/02/12 06:50:46;;;;;;;;;;;;;;;-4.29;80.12;101138.69;5093096;28;19916;-68
2022/02/12 06:53:12;;;;;;;;;;;;;;;-4.16;79.14;101132.09;5093168;28;19920;-65
2022/02/12 06:55:37;;;;;;;;;;;;;;;-3.94;79.43;101133.88;5093082;28;19972;-65
2022/02/12 06:58:02;;;;;;;;;;;;;;;-3.70;79.00;101143.28;5100907;28;20527;-69
2022/02/12 07:00:29;;;;;;;;;;;;;;;-3.46;78.28;101142.28;5101973;28;19969;-70
2022/02/12 07:02:54;;;;;;;;;;;;;;;-3.30;77.24;101136.41;5093820;28;19920;-70
2022/02/12 07:05:20;;;;;;;;;;;;;;;-3.14;77.04;101146.13;5093960;28;20287;-69
2022/02/12 07:07:46;;;;;;;;;;;;;;;-2.98;77.27;101148.88;5092158;28;19916;-68
2022/02/12 07:10:12;;;;;;;;;;;;;;;-2.94;76.11;101145.22;5074599;28;19916;-65
2022/02/12 07:12:37;;;;;;;;;;;;;;;-2.86;76.48;101137.94;5091394;28;19964;-70
2022/02/12 07:15:03;;;;;;;;;;;;;;;-2.71;75.93;101138.16;5092732;28;19961;-64
2022/02/12 07:17:28;;;;;;;;;;;;;;;-2.65;75.52;101141.31;5092636;28;20401;-64
2022/02/12 07:19:54;;;;;;;;;;;;;;;-2.67;76.22;101137.94;5092866;28;19920;-64
2022/02/12 07:22:25;;;;;;;;;;;;;;;-2.73;76.40;101137.38;5092610;28;19923;-68
2022/02/12 07:24:56;;;;;;;;;;;;;;;-2.79;76.79;101132.44;5092523;28;19916;-65
2022/02/12 07:27:21;;;;;;;;;;;;;;;-2.89;77.07;101126.78;5092170;28;19916;-64
2022/02/12 07:29:47;;;;;;;;;;;;;;;-2.87;77.26;101131.03;5073908;28;20386;-64
2022/02/12 07:32:12;;;;;;;;;;;;;;;-2.71;77.62;101130.34;5074100;28;19916;-64
2022/02/12 07:34:37;;;;;;;;;;;;;;;-2.48;77.00;101134.50;5073851;28;19916;-63
2022/02/12 07:37:03;;;;;;;;;;;;;;;-2.36;76.34;101123.50;5091034;28;19943;-63
2022/02/12 07:39:29;;;;;;;;;;;;;;;-2.26;76.24;101133.44;5090672;28;19931;-66
2022/02/12 07:41:57;;;;;;;;;;;;;;;-2.25;75.96;101116.88;5074295;28;19924;-67
2022/02/12 07:44:23;;;;;;;;;;;;;;;-2.31;75.80;101126.75;5092080;28;19922;-68
2022/02/12 07:46:49;;;;;;;;;;;;;;;-2.31;76.00;101114.56;5092103;28;20023;-67
2022/02/12 07:49:15;;;;;;;;;;;;;;;-2.25;75.99;101119.50;5073386;28;19920;-66
2022/02/12 07:51:40;;;;;;;;;;;;;;;-2.28;75.35;101114.41;5092097;28;19920;-70
2022/02/12 07:54:05;;;;;;;;;;;;;;;-2.24;75.92;101123.78;5074366;28;19961;-68
2022/02/12 07:56:31;;;;;;;;;;;;;;;-2.27;75.30;101123.09;5092566;28;19977;-65
2022/02/12 07:58:57;;;;;;;;;;;;;;;-2.27;75.14;101125.69;5096325;28;19923;-66
2022/02/12 08:01:23;;;;;;;;;;;;;;;-2.33;75.06;101125.97;5094681;28;20396;-69
2022/02/12 08:03:48;;;;;;;;;;;;;;;-2.40;75.10;101120.19;5074353;28;19915;-66
2022/02/12 08:08:58;;;;;;;;;;;;;;;-2.40;75.41;101119.34;5074022;28;19915;-67
2022/02/12 08:11:25;;;;;;;;;;;;;;;-2.39;75.43;101121.03;5075684;28;20447;-64
2022/02/12 08:13:50;;;;;;;;;;;;;;;-2.31;76.12;101130.22;5081279;28;19922;-68
2022/02/12 08:16:16;;;;;;;;;;;;;;;-2.18;75.45;101125.25;5074800;28;19916;-66
2022/02/12 08:18:42;;;;;;;;;;;;;;;-2.11;75.30;101120.59;5092259;28;20371;-66
2022/02/12 08:21:07;;;;;;;;;;;;;;;-2.02;75.10;101121.00;5075505;28;19915;-65
2022/02/12 08:23:33;;;;;;;;;;;;;;;-1.96;74.71;101120.72;5096222;28;19916;-64
2022/02/12 08:25:58;;;;;;;;;;;;;;;-1.91;74.50;101117.88;5073317;28;19916;-66
2022/02/12 08:28:24;;;;;;;;;;;;;;;-1.89;74.40;101121.25;5073453;28;19916;-67
2022/02/12 08:30:49;;;;;;;;;;;;;;;-1.91;74.18;101110.03;5073051;28;19998;-63
2022/02/12 08:33:14;;;;;;;;;;;;;;;-1.89;74.71;101110.81;5073225;28;20395;-64
2022/02/12 08:35:40;;;;;;;;;;;;;;;-1.75;74.26;101103.13;5090116;28;19923;-63
2022/02/12 08:38:06;;;;;;;;;;;;;;;-1.72;73.51;101097.78;5091797;28;20018;-66
2022/02/12 08:40:32;;;;;;;;;;;;;;;-1.70;73.21;101100.31;5073327;28;20394;-68
2022/02/12 08:42:58;;;;;;;;;;;;;;;-1.62;73.49;101093.78;5075110;28;19927;-68
2022/02/12 08:45:24;;;;;;;;;;;;;;;-1.63;73.14;101092.09;5091189;28;19916;-66
2022/02/12 08:47:50;;;;;;;;;;;;;;;-1.60;72.51;101091.09;5091297;28;20010;-66
2022/02/12 08:50:18;;;;;;;;;;;;;;;-1.52;72.88;101088.94;5091667;28;19926;-72
2022/02/12 08:52:46;;;;;;;;;;;;;;;-1.39;72.79;101083.94;5091594;28;19916;-68
2022/02/12 08:55:15;;;;;;;;;;;;;;;-1.38;72.13;101077.78;5089823;28;19930;-69
2022/02/12 08:57:44;;;;;;;;;;;;;;;-1.39;71.54;101083.94;5083539;28;20335;-68
2022/02/12 09:03:03;;;;;;;;;;;;;;;-1.28;71.80;101098.13;5077117;28;19923;-66
2022/02/12 09:05:31;;;;;;;;;;;;;;;-1.26;70.63;101093.69;5053675;28;20401;-72
2022/02/12 09:08:00;;;;;;;;;;;;;;;-1.31;70.54;101084.38;5058892;28;19916;-66
2022/02/12 09:10:25;;;;;;;;;;;;;;;-1.44;70.47;101080.72;5066788;28;19916;-64
2022/02/12 09:12:55;;;;;;;;;;;;;;;-1.48;70.73;101089.63;5082001;28;19923;-67
2022/02/12 09:15:20;;;;;;;;;;;;;;;-1.43;71.00;101083.25;5064789;28;19970;-70
2022/02/12 09:17:46;;;;;;;;;;;;;;;-1.43;70.56;101079.81;5064532;28;19947;-67
2022/02/12 09:20:11;;;;;;;;;;;;;;;-1.46;70.99;101082.53;5083698;28;20295;-68
2022/02/12 09:22:36;;;;;;;;;;;;;;;-1.43;70.90;101083.25;5083135;28;19965;-69
2022/02/12 09:25:02;;;;;;;;;;;;;;;-1.31;70.68;101087.84;5084271;28;19949;-68
2022/02/12 09:27:28;;;;;;;;;;;;;;;-1.22;70.34;101078.69;5069049;28;19917;-67
2022/02/12 09:29:54;;;;;;;;;;;;;;;-1.18;70.40;101076.75;5083081;28;19931;-70
2022/02/12 09:32:20;;;;;;;;;;;;;;;-1.14;70.06;101068.69;5072209;28;19920;-68
2022/02/12 09:34:45;;;;;;;;;;;;;;;-1.14;70.09;101058.25;5094779;28;19915;-66
2022/02/12 09:37:11;;;;;;;;;;;;;;;-1.20;69.42;101057.69;5094356;28;19915;-67
2022/02/12 09:39:38;;;;;;;;;;;;;;;-1.21;70.03;101062.06;5094125;28;19927;-65
2022/02/12 09:42:10;;;;;;;;;;;;;;;-1.17;69.59;101060.97;5076712;28;20022;-67
2022/02/12 09:44:37;;;;;;;;;;;;;;;-1.09;69.45;101061.44;5101376;28;19944;-67
2022/02/12 09:47:18;;;;;;;;;;;;;;;-1.06;69.43;101066.50;5079940;28;20364;-64
2022/02/12 09:49:43;;;;;;;;;;;;;;;-1.00;69.59;101076.63;5096462;28;19923;-64
2022/02/12 09:52:10;;;;;;;;;;;;;;;-1.00;69.18;101065.34;5095501;28;19916;-65
2022/02/12 09:54:36;;;;;;;;;;;;;;;-0.99;68.84;101073.09;5093543;28;19915;-67
2022/02/12 09:57:05;;;;;;;;;;;;;;;-1.09;69.30;101060.59;5077184;28;19932;-66
2022/02/12 09:59:30;;;;;;;;;;;;;;;-1.11;69.12;101063.31;5074304;28;20342;-65
2022/02/12 10:01:56;;;;;;;;;;;;;;;-1.07;69.33;101063.97;5055854;28;19977;-68
2022/02/12 10:04:21;;;;;;;;;;;;;;;-1.11;69.10;101060.69;5073920;28;19917;-66
2022/02/12 10:06:48;;;;;;;;;;;;;;;-1.14;69.36;101063.47;5056024;28;20358;-66
2022/02/12 10:09:14;;;;;;;;;;;;;;;-1.12;69.60;101056.38;5055947;28;20308;-69
2022/02/12 10:11:50;;;;;;;;;;;;;;;-1.05;68.74;101036.81;5054884;28;19985;-68
2022/02/12 10:14:17;;;;;;;;;;;;;;;-1.06;68.90;101019.47;5073474;28;20399;-68
2022/02/12 10:17:00;;;;;;;;;;;;;;;-1.08;69.09;101010.84;5055776;28;19916;-68
2022/02/12 10:19:30;;;;;;;;;;;;;;;-1.03;68.71;101006.22;5056415;28;20376;-69
2022/02/12 10:22:05;;;;;;;;;;;;;;;-0.94;68.58;101013.56;5073604;28;19959;-67
2022/02/12 10:24:47;;;;;;;;;;;;;;;-0.89;68.30;101013.31;5055525;28;19920;-66
2022/02/12 10:27:13;;;;;;;;;;;;;;;-0.87;68.19;101002.75;5073484;28;20413;-67
2022/02/12 10:29:38;;;;;;;;;;;;;;;-0.89;67.90;101015.06;5073550;28;20015;-66
2022/02/12 10:32:10;;;;;;;;;;;;;;;-0.86;68.42;101014.94;5055355;28;20011;-67
2022/02/12 10:34:40;;;;;;;;;;;;;;;-0.88;68.81;101004.53;5038850;28;19960;-70
2022/02/12 10:37:05;;;;;;;;;;;;;;;-0.85;68.46;101012.22;5073197;28;19920;-67
2022/02/12 10:40:08;;;;;;;;;;;;;;;-0.86;68.27;101014.94;5067269;28;19921;-69
2022/02/12 10:42:44;;;;;;;;;;;;;;;-0.96;68.93;101010.19;5004513;28;19970;-67
2022/02/12 10:45:12;;;;;;;;;;;;;;;-0.99;69.12;101018.19;5033380;28;19925;-67
2022/02/12 10:47:38;;;;;;;;;;;;;;;-1.00;69.09;101019.13;5052097;28;19917;-68
2022/02/12 10:50:03;;;;;;;;;;;;;;;-1.00;69.36;101006.06;5053251;28;19971;-68
2022/02/12 10:52:39;;;;;;;;;;;;;;;-1.01;69.20;101001.75;5053317;28;19960;-70
2022/02/12 10:55:05;;;;;;;;;;;;;;;-0.98;69.26;101008.59;5031872;28;20392;-69
2022/02/12 10:57:38;;;;;;;;;;;;;;;-1.01;68.77;100999.13;5051383;28;20023;-68
2022/02/12 11:00:05;;;;;;;;;;;;;;;-1.03;69.20;100995.75;5052846;28;19916;-67
2022/02/12 11:02:30;;;;;;;;;;;;;;;-1.04;69.37;100994.06;5053088;28;19916;-70
2022/02/12 11:04:57;;;;;;;;;;;;;;;-0.96;69.56;100996.28;5052109;28;20345;-67
2022/02/12 11:07:23;;;;;;;;;;;;;;;-0.95;69.32;100985.72;5052890;28;20383;-67
2022/02/12 11:09:49;;;;;;;;;;;;;;;-0.90;69.46;100988.09;5052819;28;19924;-68
2022/02/12 11:12:15;;;;;;;;;;;;;;;-0.95;69.73;101001.41;5052844;28;20033;-68
2022/02/12 11:14:44;;;;;;;;;;;;;;;-1.00;69.86;100995.59;5017905;28;19923;-68
2022/02/12 11:17:15;;;;;;;;;;;;;;;-0.99;69.84;100999.91;5052854;28;19917;-67
2022/02/12 11:19:41;;;;;;;;;;;;;;;-0.96;70.54;100984.03;5052649;28;19956;-73
2022/02/12 11:22:10;;;;;;;;;;;;;;;-0.87;70.38;100971.38;5037673;28;19916;-69
2022/02/12 11:24:40;;;;;;;;;;;;;;;-0.83;70.34;100959.84;5074983;28;19951;-68
2022/02/12 11:27:16;;;;;;;;;;;;;;;-0.84;69.88;100955.56;5092939;28;19969;-72
2022/02/12 11:29:43;;;;;;;;;;;;;;;-0.95;70.40;100964.81;5093230;28;19922;-71
2022/02/12 11:32:11;;;;;;;;;;;;;;;-0.99;70.92;100942.38;5075030;28;19962;-69
2022/02/12 11:34:40;;;;;;;;;;;;;;;-1.04;71.26;100940.97;5092960;28;20006;-70
2022/02/12 11:37:13;;;;;;;;;;;;;;;-1.04;71.59;100944.41;5076577;28;19935;-69
2022/02/12 11:39:40;;;;;;;;;;;;;;;-1.07;71.90;100941.97;5075146;28;19920;-69
2022/02/12 11:42:06;;;;;;;;;;;;;;;-1.07;70.95;100952.44;5059111;28;19920;-70
2022/02/12 11:44:41;;;;;;;;;;;;;;;-1.07;71.06;100955.03;5093635;28;19916;-67
2022/02/12 11:47:08;;;;;;;;;;;;;;;-1.01;71.15;100949.47;5092595;28;19920;-66
2022/02/12 11:49:36;;;;;;;;;;;;;;;-0.91;71.34;100951.56;5092769;28;20032;-68
2022/02/12 11:52:06;;;;;;;;;;;;;;;-0.83;70.95;100970.31;5074737;28;20018;-71
2022/02/12 11:54:46;;;;;;;;;;;;;;;-0.79;70.77;100964.81;5074400;28;19916;-67
2022/02/12 11:57:27;;;;;;;;;;;;;;;-0.79;71.12;100963.97;5093149;28;19958;-68
2022/02/12 12:00:03;;;;;;;;;;;;;;;-0.82;70.73;100966.78;5092650;28;19926;-70
2022/02/12 12:02:38;;;;;;;;;;;;;;;-0.78;70.47;100968.28;5074630;28;19923;-69
2022/02/12 12:05:15;;;;;;;;;;;;;;;-0.76;70.98;100959.41;5092861;28;19916;-67
2022/02/12 12:07:56;;;;;;;;;;;;;;;-0.68;70.76;100966.81;5092526;28;19961;-73
2022/02/12 12:10:22;;;;;;;;;;;;;;;-0.60;70.85;100964.63;5092968;28;19916;-69
2022/02/12 12:12:48;;;;;;;;;;;;;;;-0.61;71.03;100962.94;5092416;28;19951;-69
2022/02/12 12:15:15;;;;;;;;;;;;;;;-0.67;72.42;100950.19;5092105;28;19974;-66
2022/02/12 12:17:41;;;;;;;;;;;;;;;-0.80;74.84;100951.84;5092480;28;19916;-73
2022/02/12 12:20:06;;;;;;;;;;;;;;;-0.86;74.90;100944.34;5074287;28;19916;-68
2022/02/12 12:22:32;;;;;;;;;;;;;;;-0.92;77.11;100927.19;5092647;28;19916;-71
2022/02/12 12:24:57;;;;;;;;;;;;;;;-0.94;77.41;100929.91;5092345;28;19916;-73
2022/02/12 12:27:23;;;;;;;;;;;;;;;-0.96;77.02;100926.53;5092387;28;20399;-75
2022/02/12 12:32:35;;;;;;;;;;;;;;;-0.94;78.58;100916.81;5093075;28;20399;-81
2022/02/12 12:35:03;;;;;;;;;;;;;;;-0.97;77.64;100909.16;5096265;28;19916;-78
2022/02/12 12:37:30;;;;;;;;;;;;;;;-0.95;77.05;100909.91;5080390;28;19915;-78
2022/02/12 12:40:02;;;;;;;;;;;;;;;-0.85;77.49;100914.66;5107064;28;19919;-75
2022/02/12 12:42:42;;;;;;;;;;;;;;;-0.74;77.04;100907.88;5118032;28;19962;-79
2022/02/12 12:45:39;;;;;;;;;;;;;;;-0.67;75.55;100897.91;5099154;28;19928;-79
2022/02/12 12:48:04;;;;;;;;;;;;;;;-0.73;74.86;100908.72;5105900;28;19916;-76